Time;durP1;ratioP1;P1;durP2;ratioP2;P2;SDS_P1;SDS_P2;PMS_P1;PMS_P2;Temp;Humidity;BMP_temperature;BMP_pressure;BME280_temperature;BME280_humidity;BME280_pressure;Samples;Min_cycle;Max_cycle;Signal;HPM_P1;HPM_P2
2021/04/05 00:02:15;;;;;;;8.37;5.33;;;;;;;;;;5058979;28;20530;-72
2021/04/05 00:04:43;;;;;;;13.43;7.90;;;;;;;;;;5057376;28;20458;-71
2021/04/05 00:07:31;;;;;;;10.67;5.60;;;;;;;;;;5059897;28;20499;-71
2021/04/05 00:10:02;;;;;;;12.03;6.57;;;;;;;;;;5057977;28;20449;-71
2021/04/05 00:12:42;;;;;;;9.03;6.93;;;;;;;;;;5060576;28;20465;-71
2021/04/05 00:15:12;;;;;;;8.33;5.50;;;;;;;;;;5043555;28;20468;-71
2021/04/05 00:17:39;;;;;;;22.43;7.00;;;;;;;;;;5058005;28;20776;-71
2021/04/05 00:20:10;;;;;;;13.13;7.50;;;;;;;;;;5059823;28;20476;-71
2021/04/05 00:22:57;;;;;;;12.67;6.80;;;;;;;;;;5058117;28;20468;-72
2021/04/05 00:28:46;;;;;;;22.60;10.10;;;;;;;;;;5052866;28;20499;-72
2021/04/05 00:31:18;;;;;;;24.20;10.10;;;;;;;;;;5057875;28;20556;-73
2021/04/05 00:33:55;;;;;;;22.33;9.10;;;;;;;;;;5057673;28;20900;-71
2021/04/05 00:36:39;;;;;;;19.47;9.00;;;;;;;;;;5059086;28;20442;-71
2021/04/05 00:39:07;;;;;;;24.03;9.87;;;;;;;;;;5047642;28;20528;-71
2021/04/05 00:41:34;;;;;;;11.90;7.13;;;;;;;;;;5039495;28;20457;-71
2021/04/05 00:44:01;;;;;;;16.27;8.80;;;;;;;;;;5038919;28;20745;-71
2021/04/05 00:46:29;;;;;;;14.90;6.60;;;;;;;;;;5037948;28;20474;-71
2021/04/05 00:48:56;;;;;;;11.87;7.43;;;;;;;;;;5038720;28;20494;-71
2021/04/05 00:51:25;;;;;;;16.47;9.80;;;;;;;;;;5038601;28;20454;-71
2021/04/05 00:53:53;;;;;;;20.30;7.73;;;;;;;;;;5057459;28;20508;-71
2021/04/05 00:56:27;;;;;;;15.90;7.43;;;;;;;;;;5057563;28;20909;-71
2021/04/05 00:58:55;;;;;;;11.93;6.60;;;;;;;;;;5057714;28;20464;-71
2021/04/05 01:01:24;;;;;;;12.20;7.60;;;;;;;;;;5058544;28;20754;-71
2021/04/05 01:03:52;;;;;;;17.17;8.53;;;;;;;;;;5058320;28;20774;-71
2021/04/05 01:06:21;;;;;;;17.73;11.33;;;;;;;;;;5053247;28;20463;-71
2021/04/05 01:08:49;;;;;;;17.40;8.20;;;;;;;;;;5039254;28;20491;-71
2021/04/05 01:11:17;;;;;;;16.17;9.33;;;;;;;;;;5037433;28;20863;-71
2021/04/05 01:13:45;;;;;;;11.70;6.63;;;;;;;;;;5038531;28;20479;-71
2021/04/05 01:16:12;;;;;;;12.23;8.47;;;;;;;;;;5038964;28;20532;-71
2021/04/05 01:18:40;;;;;;;15.67;6.80;;;;;;;;;;5037608;28;20478;-71
2021/04/05 01:21:08;;;;;;;16.20;9.90;;;;;;;;;;5038538;28;20471;-71
2021/04/05 01:23:39;;;;;;;13.03;8.03;;;;;;;;;;5037038;28;20459;-72
2021/04/05 01:26:06;;;;;;;15.80;8.83;;;;;;;;;;5037512;28;20467;-71
2021/04/05 01:28:33;;;;;;;9.37;6.17;;;;;;;;;;5037064;28;20486;-71
2021/04/05 01:31:02;;;;;;;16.63;7.40;;;;;;;;;;5047054;28;20924;-71
2021/04/05 01:33:30;;;;;;;12.77;6.43;;;;;;;;;;5057430;28;20485;-71
2021/04/05 01:35:58;;;;;;;11.47;7.97;;;;;;;;;;5057690;28;20482;-71
2021/04/05 01:38:26;;;;;;;21.17;11.47;;;;;;;;;;5057097;28;20525;-71
2021/04/05 01:40:55;;;;;;;14.80;7.93;;;;;;;;;;5057344;28;20462;-71
2021/04/05 01:43:23;;;;;;;16.33;8.03;;;;;;;;;;5056131;28;20480;-71
2021/04/05 01:45:50;;;;;;;19.63;10.80;;;;;;;;;;5057120;28;20466;-71
2021/04/05 01:48:22;;;;;;;11.57;7.73;;;;;;;;;;5057044;28;20584;-71
2021/04/05 01:50:49;;;;;;;17.47;8.70;;;;;;;;;;5056877;28;20806;-71
2021/04/05 01:53:18;;;;;;;11.87;7.67;;;;;;;;;;5040165;28;20478;-71
2021/04/05 01:55:46;;;;;;;20.10;10.57;;;;;;;;;;5036668;28;20855;-70
2021/04/05 01:58:17;;;;;;;11.83;6.10;;;;;;;;;;5036680;28;20793;-70
2021/04/05 02:00:44;;;;;;;12.20;7.30;;;;;;;;;;5036646;28;20471;-70
2021/04/05 02:03:12;;;;;;;17.87;9.50;;;;;;;;;;5037010;28;20470;-71
2021/04/05 02:05:40;;;;;;;22.43;9.60;;;;;;;;;;5037219;28;20466;-71
2021/04/05 02:08:08;;;;;;;12.30;6.80;;;;;;;;;;5036885;28;20486;-71
2021/04/05 02:10:36;;;;;;;10.60;7.10;;;;;;;;;;5036812;28;20513;-71
2021/04/05 02:13:03;;;;;;;10.83;5.10;;;;;;;;;;5035912;28;20463;-71
2021/04/05 02:15:33;;;;;;;10.87;7.43;;;;;;;;;;5036816;28;20843;-71
2021/04/05 02:18:00;;;;;;;13.70;7.10;;;;;;;;;;5038356;28;20470;-71
2021/04/05 02:20:28;;;;;;;12.73;8.27;;;;;;;;;;5044523;28;20481;-71
2021/04/05 02:23:04;;;;;;;10.40;5.80;;;;;;;;;;5060576;28;20462;-71
2021/04/05 02:28:35;;;;;;;15.60;8.90;;;;;;;;;;5058569;28;20798;-71
2021/04/05 02:31:05;;;;;;;15.50;8.63;;;;;;;;;;5053821;28;20469;-70
2021/04/05 02:33:36;;;;;;;17.13;9.33;;;;;;;;;;5040228;28;20508;-70
2021/04/05 02:36:04;;;;;;;10.07;6.57;;;;;;;;;;5039311;28;20466;-71
2021/04/05 02:38:32;;;;;;;14.97;8.03;;;;;;;;;;5039805;28;20462;-71
2021/04/05 02:40:59;;;;;;;12.17;6.40;;;;;;;;;;5039678;28;20459;-72
2021/04/05 02:43:29;;;;;;;18.17;10.00;;;;;;;;;;5040343;28;20455;-72
2021/04/05 02:45:57;;;;;;;11.40;8.43;;;;;;;;;;5052243;28;20897;-71
2021/04/05 02:48:25;;;;;;;23.43;11.87;;;;;;;;;;5059617;28;20489;-71
2021/04/05 02:50:53;;;;;;;14.00;8.43;;;;;;;;;;5059420;28;20462;-71
2021/04/05 02:53:21;;;;;;;14.20;8.03;;;;;;;;;;5059875;28;20458;-71
2021/04/05 02:55:48;;;;;;;8.63;5.43;;;;;;;;;;5059534;28;20828;-71
2021/04/05 02:58:16;;;;;;;17.40;7.37;;;;;;;;;;5060001;28;20469;-71
2021/04/05 03:00:45;;;;;;;16.43;9.90;;;;;;;;;;5039995;28;20466;-71
2021/04/05 03:03:13;;;;;;;14.27;7.13;;;;;;;;;;5039177;28;20941;-71
2021/04/05 03:05:42;;;;;;;15.50;7.23;;;;;;;;;;5039512;28;20466;-71
2021/04/05 03:08:14;;;;;;;9.70;5.37;;;;;;;;;;5038796;28;20621;-71
2021/04/05 03:10:41;;;;;;;13.03;7.40;;;;;;;;;;5039910;28;20471;-71
2021/04/05 03:13:09;;;;;;;11.40;7.53;;;;;;;;;;5039580;28;20455;-71
2021/04/05 03:15:37;;;;;;;11.63;6.37;;;;;;;;;;5039458;28;20867;-72
2021/04/05 03:21:04;;;;;;;16.30;8.57;;;;;;;;;;5030319;28;20482;-71
2021/04/05 03:23:32;;;;;;;10.37;6.97;;;;;;;;;;5039097;28;20450;-71
2021/04/05 03:26:00;;;;;;;17.20;9.07;;;;;;;;;;5040120;28;20466;-71
2021/04/05 03:28:33;;;;;;;20.20;10.23;;;;;;;;;;5042022;28;20478;-71
2021/04/05 03:31:16;;;;;;;18.30;9.83;;;;;;;;;;5040187;28;20566;-71
2021/04/05 03:33:45;;;;;;;24.40;10.20;;;;;;;;;;5040887;28;20878;-71
2021/04/05 03:36:15;;;;;;;18.63;7.90;;;;;;;;;;5041565;28;20492;-71
2021/04/05 03:38:43;;;;;;;17.97;7.43;;;;;;;;;;5042124;28;20485;-71
2021/04/05 03:41:14;;;;;;;14.87;8.93;;;;;;;;;;5040327;28;20949;-71
2021/04/05 03:43:44;;;;;;;12.20;7.73;;;;;;;;;;5038591;28;20461;-71
2021/04/05 03:46:16;;;;;;;19.07;10.33;;;;;;;;;;5040042;28;20571;-71
2021/04/05 03:48:45;;;;;;;12.60;7.93;;;;;;;;;;5038896;28;20491;-71
2021/04/05 03:51:15;;;;;;;11.73;7.90;;;;;;;;;;5041577;28;20893;-71
2021/04/05 03:53:45;;;;;;;19.10;10.90;;;;;;;;;;5040883;28;20541;-71
2021/04/05 03:56:13;;;;;;;11.77;8.53;;;;;;;;;;5053401;28;20462;-73
2021/04/05 03:58:44;;;;;;;13.53;7.87;;;;;;;;;;5059893;28;20462;-72
2021/04/05 04:01:12;;;;;;;18.20;6.60;;;;;;;;;;5059578;28;20727;-71
2021/04/05 04:03:48;;;;;;;13.10;8.50;;;;;;;;;;5058530;28;20457;-71
2021/04/05 04:06:17;;;;;;;16.87;8.20;;;;;;;;;;5058932;28;20469;-71
2021/04/05 04:08:46;;;;;;;15.30;8.87;;;;;;;;;;5058842;28;20481;-71
2021/04/05 04:11:20;;;;;;;14.47;8.97;;;;;;;;;;5057431;28;20885;-71
2021/04/05 04:13:49;;;;;;;19.00;11.20;;;;;;;;;;5059050;28;20457;-71
2021/04/05 04:16:16;;;;;;;27.73;11.57;;;;;;;;;;5059348;28;20462;-71
2021/04/05 04:18:43;;;;;;;17.80;9.70;;;;;;;;;;5057962;28;20457;-71
2021/04/05 04:21:12;;;;;;;13.47;10.73;;;;;;;;;;5059558;28;20473;-72
2021/04/05 04:23:40;;;;;;;17.77;9.73;;;;;;;;;;5058147;28;20465;-71
2021/04/05 04:26:08;;;;;;;23.17;11.37;;;;;;;;;;5057913;28;20788;-71
2021/04/05 04:28:35;;;;;;;12.53;7.73;;;;;;;;;;5057943;28;20497;-71
2021/04/05 04:31:03;;;;;;;14.10;8.30;;;;;;;;;;5058348;28;20477;-71
2021/04/05 04:33:31;;;;;;;17.93;9.80;;;;;;;;;;5057206;28;20454;-71
2021/04/05 04:35:59;;;;;;;16.10;9.57;;;;;;;;;;5057956;28;21113;-71
2021/04/05 04:38:26;;;;;;;21.67;11.10;;;;;;;;;;5056999;28;20458;-70
2021/04/05 04:40:55;;;;;;;16.97;11.40;;;;;;;;;;5059085;28;20473;-72
2021/04/05 04:43:24;;;;;;;12.57;8.00;;;;;;;;;;5053681;28;20458;-72
2021/04/05 04:45:51;;;;;;;24.13;11.00;;;;;;;;;;5038492;28;20474;-72
2021/04/05 04:48:19;;;;;;;21.93;9.07;;;;;;;;;;5038871;28;20541;-72
2021/04/05 04:50:51;;;;;;;22.30;11.47;;;;;;;;;;5041581;28;20511;-72
2021/04/05 04:53:19;;;;;;;7.80;5.77;;;;;;;;;;5057405;28;20457;-71
2021/04/05 04:55:47;;;;;;;10.87;6.80;;;;;;;;;;5078503;28;20877;-72
2021/04/05 04:58:15;;;;;;;14.70;7.67;;;;;;;;;;5061357;28;21109;-72
2021/04/05 05:00:42;;;;;;;15.40;8.97;;;;;;;;;;5058422;28;20479;-70
2021/04/05 05:03:11;;;;;;;16.27;10.47;;;;;;;;;;5057453;28;20821;-72
2021/04/05 05:06:05;;;;;;;24.07;12.50;;;;;;;;;;5058744;28;20556;-72
2021/04/05 05:08:34;;;;;;;25.40;12.23;;;;;;;;;;5067933;28;20492;-71
2021/04/05 05:11:09;;;;;;;21.43;10.40;;;;;;;;;;5070944;28;20470;-71
2021/04/05 05:13:41;;;;;;;16.53;10.97;;;;;;;;;;5062029;28;20456;-71
2021/04/05 05:16:12;;;;;;;13.90;10.43;;;;;;;;;;5077677;28;20708;-71
2021/04/05 05:18:43;;;;;;;14.70;8.00;;;;;;;;;;5061050;28;20750;-71
2021/04/05 05:21:16;;;;;;;14.70;9.00;;;;;;;;;;5057191;28;20457;-72
2021/04/05 05:23:48;;;;;;;6.03;4.07;;;;;;;;;;5057384;28;20461;-71
2021/04/05 05:26:21;;;;;;;6.10;1.73;;;;;;;;;;5058157;28;20457;-71
2021/04/05 05:28:50;;;;;;;1.83;1.07;;;;;;;;;;5058210;28;20501;-71
2021/04/05 05:31:24;;;;;;;1.47;0.70;;;;;;;;;;5037255;28;20477;-72
2021/04/05 05:33:55;;;;;;;1.23;0.50;;;;;;;;;;5038536;28;20555;-72
2021/04/05 05:36:26;;;;;;;1.93;0.97;;;;;;;;;;5037245;28;20473;-71
2021/04/05 05:38:59;;;;;;;1.00;0.40;;;;;;;;;;5052012;28;20821;-71
2021/04/05 05:41:40;;;;;;;1.13;0.70;;;;;;;;;;5057819;28;20527;-71
2021/04/05 05:44:16;;;;;;;1.30;0.70;;;;;;;;;;5056776;28;20469;-72
2021/04/05 05:46:51;;;;;;;1.80;0.60;;;;;;;;;;5057867;28;20468;-72
2021/04/05 05:49:27;;;;;;;1.10;0.50;;;;;;;;;;5057983;28;20496;-71
2021/04/05 05:52:13;;;;;;;1.40;0.80;;;;;;;;;;5072808;28;20461;-71
2021/04/05 05:54:48;;;;;;;9.13;1.00;;;;;;;;;;5082379;28;20520;-71
2021/04/05 05:57:24;;;;;;;1.00;0.50;;;;;;;;;;5081560;28;20493;-72
2021/04/05 05:59:54;;;;;;;2.63;0.70;;;;;;;;;;5056411;28;20480;-71
2021/04/05 06:02:34;;;;;;;1.63;0.97;;;;;;;;;;5041964;28;20786;-71
2021/04/05 06:05:10;;;;;;;1.00;0.50;;;;;;;;;;5040851;28;20489;-71
2021/04/05 06:07:42;;;;;;;4.50;1.10;;;;;;;;;;5058277;28;20460;-72
2021/04/05 06:10:15;;;;;;;1.73;0.70;;;;;;;;;;5049723;28;20480;-71
2021/04/05 06:12:46;;;;;;;1.40;0.63;;;;;;;;;;5081049;28;20771;-71
2021/04/05 06:15:22;;;;;;;1.10;0.50;;;;;;;;;;5067321;28;20478;-71
2021/04/05 06:18:03;;;;;;;1.87;0.50;;;;;;;;;;5059942;28;20460;-71
2021/04/05 06:20:36;;;;;;;3.23;1.00;;;;;;;;;;5058336;28;20518;-69
2021/04/05 06:23:31;;;;;;;1.20;0.70;;;;;;;;;;5061193;28;20440;-71
2021/04/05 06:26:08;;;;;;;1.20;0.60;;;;;;;;;;5052540;28;20481;-71
2021/04/05 06:28:45;;;;;;;8.20;1.30;;;;;;;;;;5081883;28;20514;-71
2021/04/05 06:31:25;;;;;;;1.90;0.90;;;;;;;;;;5081105;28;20460;-71
2021/04/05 06:33:58;;;;;;;1.70;1.00;;;;;;;;;;5080123;28;20455;-71
2021/04/05 06:36:36;;;;;;;3.10;1.60;;;;;;;;;;5081668;28;20475;-71
2021/04/05 06:39:10;;;;;;;2.30;0.60;;;;;;;;;;5076193;28;20488;-72
2021/04/05 06:41:57;;;;;;;3.10;1.20;;;;;;;;;;5079211;28;20473;-71
2021/04/05 06:44:35;;;;;;;4.13;1.60;;;;;;;;;;5081581;28;20482;-71
2021/04/05 06:47:14;;;;;;;6.60;1.20;;;;;;;;;;5079432;28;20551;-71
2021/04/05 06:49:58;;;;;;;2.40;0.80;;;;;;;;;;5081403;28;20506;-71
2021/04/05 06:52:33;;;;;;;3.83;1.10;;;;;;;;;;5079339;28;20460;-71
2021/04/05 06:55:06;;;;;;;2.60;1.53;;;;;;;;;;5079965;28;20517;-71
2021/04/05 06:57:56;;;;;;;3.30;1.53;;;;;;;;;;5080642;28;20558;-71
2021/04/05 07:00:30;;;;;;;1.83;1.10;;;;;;;;;;5069421;28;20476;-70
2021/04/05 07:03:29;;;;;;;1.60;0.90;;;;;;;;;;5075918;28;20477;-72
2021/04/05 07:06:26;;;;;;;3.70;1.60;;;;;;;;;;5060672;28;20475;-71
2021/04/05 07:09:08;;;;;;;8.53;1.27;;;;;;;;;;5060835;28;20488;-71
2021/04/05 07:11:49;;;;;;;3.00;1.50;;;;;;;;;;5060766;28;20537;-70
2021/04/05 07:14:33;;;;;;;1.73;1.00;;;;;;;;;;5059251;28;20464;-71
2021/04/05 07:20:07;;;;;;;5.13;1.23;;;;;;;;;;5035425;28;20458;-70
2021/04/05 07:22:45;;;;;;;6.93;1.20;;;;;;;;;;5038276;28;20439;-72
2021/04/05 07:25:24;;;;;;;4.40;1.50;;;;;;;;;;5040994;28;20459;-71
2021/04/05 07:28:12;;;;;;;2.20;1.27;;;;;;;;;;5039968;28;20500;-69
2021/04/05 07:30:54;;;;;;;5.83;1.10;;;;;;;;;;5037331;28;20898;-70
2021/04/05 07:33:40;;;;;;;2.60;1.27;;;;;;;;;;5040993;28;20462;-71
2021/04/05 07:36:14;;;;;;;4.10;1.03;;;;;;;;;;5021909;28;20480;-72
2021/04/05 07:38:47;;;;;;;1.60;1.00;;;;;;;;;;5039313;28;20466;-71
2021/04/05 07:41:24;;;;;;;1.20;0.60;;;;;;;;;;5038953;28;20471;-72
2021/04/05 07:44:07;;;;;;;8.73;1.23;;;;;;;;;;5061277;28;20461;-72
2021/04/05 07:46:36;;;;;;;2.83;0.87;;;;;;;;;;5062761;28;20464;-72
2021/04/05 07:49:14;;;;;;;1.03;0.50;;;;;;;;;;5066352;28;20688;-71
2021/04/05 07:51:53;;;;;;;6.53;1.10;;;;;;;;;;5059252;28;20865;-72
2021/04/05 07:54:38;;;;;;;2.10;1.03;;;;;;;;;;5058570;28;20710;-71
2021/04/05 07:57:24;;;;;;;6.63;1.40;;;;;;;;;;5059806;28;20476;-72
2021/04/05 07:59:59;;;;;;;5.67;0.83;;;;;;;;;;5058845;28;20461;-71
2021/04/05 08:02:40;;;;;;;3.60;1.33;;;;;;;;;;5060072;28;20504;-71
2021/04/05 08:05:20;;;;;;;6.50;1.73;;;;;;;;;;5039672;28;20474;-71
2021/04/05 08:08:01;;;;;;;1.60;1.13;;;;;;;;;;5037245;28;20466;-71
2021/04/05 08:10:39;;;;;;;2.70;1.40;;;;;;;;;;5039465;28;20484;-71
2021/04/05 08:13:13;;;;;;;2.90;1.73;;;;;;;;;;5038228;28;20864;-70
2021/04/05 08:16:02;;;;;;;5.33;1.23;;;;;;;;;;5039356;28;20492;-72
2021/04/05 08:18:34;;;;;;;7.03;0.80;;;;;;;;;;5039026;28;20463;-71
2021/04/05 08:21:12;;;;;;;11.40;1.20;;;;;;;;;;5037550;28;20466;-72
2021/04/05 08:23:52;;;;;;;3.13;0.90;;;;;;;;;;5039167;28;20874;-71
2021/04/05 08:29:26;;;;;;;1.87;1.00;;;;;;;;;;5010170;28;20486;-71
2021/04/05 08:32:18;;;;;;;6.43;1.33;;;;;;;;;;5038308;28;20490;-72
2021/04/05 08:34:54;;;;;;;4.47;0.77;;;;;;;;;;4983120;28;20723;-72
2021/04/05 08:37:26;;;;;;;6.40;1.00;;;;;;;;;;5038066;28;20465;-71
2021/04/05 08:40:05;;;;;;;1.20;0.70;;;;;;;;;;5037622;28;20473;-71
2021/04/05 08:42:43;;;;;;;3.53;0.70;;;;;;;;;;5038090;28;20690;-71
2021/04/05 08:45:26;;;;;;;3.20;0.70;;;;;;;;;;5037134;28;20461;-71
2021/04/05 08:47:59;;;;;;;2.03;0.80;;;;;;;;;;5036895;28;20928;-70
2021/04/05 08:50:33;;;;;;;1.67;0.70;;;;;;;;;;5037717;28;20861;-71
2021/04/05 08:53:02;;;;;;;1.17;0.60;;;;;;;;;;5036875;28;20477;-70
2021/04/05 08:55:34;;;;;;;2.23;1.10;;;;;;;;;;5037119;28;20466;-71
2021/04/05 08:58:05;;;;;;;14.57;0.90;;;;;;;;;;5036957;28;20510;-71
2021/04/05 09:00:37;;;;;;;6.20;1.00;;;;;;;;;;5036918;28;20485;-71
2021/04/05 09:03:13;;;;;;;1.30;0.60;;;;;;;;;;5037341;28;20458;-71
2021/04/05 09:05:43;;;;;;;1.63;0.70;;;;;;;;;;5035498;28;20492;-71
2021/04/05 09:08:28;;;;;;;1.30;0.60;;;;;;;;;;5036775;28;20493;-72
2021/04/05 09:11:03;;;;;;;3.40;1.30;;;;;;;;;;5021420;28;20718;-72
2021/04/05 09:13:41;;;;;;;1.10;0.53;;;;;;;;;;5036846;28;20453;-71
2021/04/05 09:16:26;;;;;;;2.13;1.03;;;;;;;;;;5037059;28;20457;-70
2021/04/05 09:19:24;;;;;;;1.10;0.60;;;;;;;;;;5036496;28;20736;-70
2021/04/05 09:22:02;;;;;;;2.50;1.03;;;;;;;;;;5037031;28;20472;-70
2021/04/05 09:24:43;;;;;;;1.13;0.70;;;;;;;;;;5036054;28;20576;-71
2021/04/05 09:27:34;;;;;;;4.00;0.70;;;;;;;;;;5035830;28;21127;-71
2021/04/05 09:30:43;;;;;;;;;;;;;;;;;;;;;
2021/04/05 09:33:32;;;;;;;2.67;1.10;;;;;;;;;;5015316;28;20460;-70
2021/04/05 09:36:35;;;;;;;1.77;0.60;;;;;;;;;;5016651;28;20549;-70
2021/04/05 09:39:22;;;;;;;1.50;0.80;;;;;;;;;;5016528;28;20467;-71
2021/04/05 09:42:08;;;;;;;5.53;1.00;;;;;;;;;;5017525;28;20469;-72
2021/04/05 09:44:54;;;;;;;1.37;0.60;;;;;;;;;;5018229;28;20466;-71
2021/04/05 09:47:38;;;;;;;4.23;0.80;;;;;;;;;;5019068;28;20457;-72
2021/04/05 09:50:11;;;;;;;4.77;0.83;;;;;;;;;;5027140;28;20484;-71
2021/04/05 09:53:01;;;;;;;1.60;0.90;;;;;;;;;;5058240;28;20470;-71
2021/04/05 09:55:40;;;;;;;1.20;0.50;;;;;;;;;;5038500;28;20508;-72
2021/04/05 09:58:09;;;;;;;1.90;0.60;;;;;;;;;;5014363;28;20487;-71
2021/04/05 10:00:38;;;;;;;1.63;0.77;;;;;;;;;;5033799;28;20461;-71
2021/04/05 10:03:08;;;;;;;4.87;0.80;;;;;;;;;;5035862;28;20477;-70
2021/04/05 10:05:38;;;;;;;3.63;0.87;;;;;;;;;;5036812;28;20568;-72
2021/04/05 10:08:07;;;;;;;1.70;0.73;;;;;;;;;;5033579;28;20578;-71
2021/04/05 10:10:37;;;;;;;3.20;1.00;;;;;;;;;;5049171;28;20554;-71
2021/04/05 10:13:07;;;;;;;4.63;0.93;;;;;;;;;;5036412;28;20465;-70
2021/04/05 10:15:35;;;;;;;3.73;1.20;;;;;;;;;;5037102;28;20499;-71
2021/04/05 10:18:07;;;;;;;2.73;1.10;;;;;;;;;;5036136;28;20468;-71
2021/04/05 10:20:38;;;;;;;8.30;1.00;;;;;;;;;;5037612;28;20875;-71
2021/04/05 10:23:07;;;;;;;5.80;1.27;;;;;;;;;;5036429;28;20459;-71
2021/04/05 10:25:35;;;;;;;4.80;1.00;;;;;;;;;;5036654;28;20466;-71
2021/04/05 10:28:04;;;;;;;2.43;0.90;;;;;;;;;;5036148;28;20468;-71
2021/04/05 10:30:35;;;;;;;4.80;2.23;;;;;;;;;;5036911;28;20462;-71
2021/04/05 10:33:05;;;;;;;2.60;1.07;;;;;;;;;;5036954;28;20464;-71
2021/04/05 10:35:35;;;;;;;6.60;1.27;;;;;;;;;;5036552;28;20542;-71
2021/04/05 10:38:32;;;;;;;2.20;0.80;;;;;;;;;;5036037;28;20450;-71
2021/04/05 10:44:18;;;;;;;2.77;1.30;;;;;;;;;;5040289;28;20549;-72
2021/04/05 10:46:49;;;;;;;2.23;1.00;;;;;;;;;;5040919;28;20547;-71
2021/04/05 10:49:18;;;;;;;5.57;0.97;;;;;;;;;;5034529;28;20485;-71
2021/04/05 10:51:46;;;;;;;4.13;0.70;;;;;;;;;;5061492;28;20458;-70
2021/04/05 10:54:17;;;;;;;2.13;0.97;;;;;;;;;;5051371;28;20468;-71
2021/04/05 10:56:48;;;;;;;3.20;0.90;;;;;;;;;;5039241;28;20925;-71
2021/04/05 10:59:20;;;;;;;2.63;1.20;;;;;;;;;;5038768;28;20478;-72
2021/04/05 11:01:49;;;;;;;3.07;0.97;;;;;;;;;;5038844;28;20473;-72
2021/04/05 11:04:18;;;;;;;3.33;0.90;;;;;;;;;;5050388;28;20452;-71
2021/04/05 11:06:51;;;;;;;3.97;1.13;;;;;;;;;;5047210;28;20467;-71
2021/04/05 11:09:19;;;;;;;4.70;0.93;;;;;;;;;;5027903;28;20548;-69
2021/04/05 11:11:52;;;;;;;4.47;1.27;;;;;;;;;;5039893;28;20474;-71
2021/04/05 11:14:23;;;;;;;4.57;1.93;;;;;;;;;;5026743;28;20746;-73
2021/04/05 11:17:05;;;;;;;2.33;0.93;;;;;;;;;;5059241;28;20466;-72
2021/04/05 11:19:35;;;;;;;3.27;0.80;;;;;;;;;;5043989;28;20528;-71
2021/04/05 11:22:03;;;;;;;3.33;0.90;;;;;;;;;;5037884;28;20473;-71
2021/04/05 11:24:33;;;;;;;4.27;1.00;;;;;;;;;;5037964;28;20465;-72
2021/04/05 11:27:06;;;;;;;5.93;1.03;;;;;;;;;;5038243;28;20462;-70
2021/04/05 11:29:36;;;;;;;3.93;0.87;;;;;;;;;;5034757;28;20580;-73
2021/04/05 11:32:24;;;;;;;5.00;1.00;;;;;;;;;;5058048;28;20544;-72
2021/04/05 11:35:14;;;;;;;10.93;2.10;;;;;;;;;;5031555;28;20470;-72
2021/04/05 11:37:52;;;;;;;4.13;1.50;;;;;;;;;;5018318;28;20466;-71
2021/04/05 11:40:21;;;;;;;2.60;0.77;;;;;;;;;;5020695;28;20478;-70
2021/04/05 11:42:51;;;;;;;2.50;1.33;;;;;;;;;;5026660;28;20454;-71
2021/04/05 11:51:13;;;;;;;4.23;1.07;;;;;;;;;;5048550;28;20982;-71
2021/04/05 11:53:59;;;;;;;6.13;1.20;;;;;;;;;;5057210;28;20762;-71
2021/04/05 11:56:36;;;;;;;3.60;1.33;;;;;;;;;;5057393;28;20465;-71
2021/04/05 11:59:06;;;;;;;3.87;1.10;;;;;;;;;;5058474;28;20905;-71
2021/04/05 12:02:00;;;;;;;4.03;2.83;;;;;;;;;;5057685;28;20457;-71
2021/04/05 12:04:36;;;;;;;2.80;1.40;;;;;;;;;;5058152;28;20460;-70
2021/04/05 12:07:10;;;;;;;3.77;0.97;;;;;;;;;;5055960;28;20520;-69
2021/04/05 12:09:53;;;;;;;2.43;1.07;;;;;;;;;;5055755;28;20485;-70
2021/04/05 12:12:26;;;;;;;4.50;0.97;;;;;;;;;;5048807;28;20530;-71
2021/04/05 12:14:57;;;;;;;5.03;3.03;;;;;;;;;;5032096;28;20608;-70
2021/04/05 12:17:34;;;;;;;3.97;2.37;;;;;;;;;;5017326;28;20460;-71
2021/04/05 12:20:13;;;;;;;;;;;;;;;;;;;;;
2021/04/05 12:23:21;;;;;;;5.43;1.27;;;;;;;;;;5026538;28;20909;-72
2021/04/05 12:25:54;;;;;;;1.53;1.17;;;;;;;;;;5023228;28;20520;-72
2021/04/05 12:28:35;;;;;;;3.37;1.13;;;;;;;;;;5031919;28;20483;-70
2021/04/05 12:31:14;;;;;;;7.60;6.90;;;;;;;;;;5018462;28;20472;-72
2021/04/05 12:33:43;;;;;;;9.70;4.93;;;;;;;;;;5053740;28;20970;-71
2021/04/05 12:36:14;;;;;;;113.23;52.17;;;;;;;;;;5039347;28;20455;-71
2021/04/05 12:38:46;;;;;;;10.73;7.73;;;;;;;;;;5021744;28;20888;-71
2021/04/05 12:41:26;;;;;;;4.23;3.23;;;;;;;;;;5018380;28;20464;-71
2021/04/05 12:44:08;;;;;;;48.00;43.67;;;;;;;;;;5017748;28;20863;-70
2021/04/05 12:46:39;;;;;;;17.23;14.30;;;;;;;;;;5005769;28;20898;-70
2021/04/05 12:49:09;;;;;;;30.47;27.77;;;;;;;;;;5026693;28;20482;-70
2021/04/05 12:51:37;;;;;;;3.03;2.83;;;;;;;;;;5017493;28;20806;-71
2021/04/05 12:54:07;;;;;;;8.03;7.33;;;;;;;;;;5035575;28;20459;-74
2021/04/05 12:56:38;;;;;;;7.53;6.03;;;;;;;;;;5033062;28;20462;-72
2021/04/05 12:59:06;;;;;;;4.70;1.70;;;;;;;;;;5036471;28;20753;-72
2021/04/05 13:01:39;;;;;;;3.40;2.00;;;;;;;;;;5037206;28;20471;-71
2021/04/05 13:04:09;;;;;;;4.03;0.97;;;;;;;;;;5017962;28;20938;-71
2021/04/05 13:06:51;;;;;;;6.10;1.23;;;;;;;;;;5018462;28;20709;-70
2021/04/05 13:09:23;;;;;;;5.87;1.40;;;;;;;;;;5029281;28;20934;-70
2021/04/05 13:11:53;;;;;;;4.60;1.70;;;;;;;;;;5037286;28;20532;-72
2021/04/05 13:14:23;;;;;;;6.20;1.10;;;;;;;;;;5035948;28;20472;-72
2021/04/05 13:17:11;;;;;;;16.20;15.17;;;;;;;;;;5036648;28;21095;-71
2021/04/05 13:20:03;;;;;;;2.80;1.93;;;;;;;;;;5035943;28;20569;-70
2021/04/05 13:22:46;;;;;;;2.90;1.20;;;;;;;;;;5037305;28;20461;-71
2021/04/05 13:25:15;;;;;;;7.33;1.50;;;;;;;;;;5037291;28;20557;-71
2021/04/05 13:27:44;;;;;;;10.57;1.90;;;;;;;;;;5037510;28;20735;-72
2021/04/05 13:30:11;;;;;;;1.90;0.70;;;;;;;;;;5036501;28;20776;-71
2021/04/05 13:32:40;;;;;;;3.40;2.37;;;;;;;;;;5038146;28;20459;-71
2021/04/05 13:35:10;;;;;;;7.10;6.40;;;;;;;;;;5037019;28;20475;-71
2021/04/05 13:37:47;;;;;;;3.43;1.63;;;;;;;;;;5036693;28;20723;-71
2021/04/05 13:40:22;;;;;;;1.40;1.10;;;;;;;;;;5037011;28;20477;-71
2021/04/05 13:42:50;;;;;;;5.73;1.10;;;;;;;;;;5020058;28;20458;-71
2021/04/05 13:45:18;;;;;;;3.40;1.40;;;;;;;;;;5017827;28;20462;-71
2021/04/05 13:47:48;;;;;;;10.57;5.00;;;;;;;;;;5017564;28;20469;-71
2021/04/05 13:50:17;;;;;;;3.13;1.00;;;;;;;;;;5016258;28;21130;-71
2021/04/05 13:52:48;;;;;;;7.20;5.43;;;;;;;;;;5017918;28;20471;-71
2021/04/05 13:55:21;;;;;;;2.13;1.07;;;;;;;;;;5016759;28;20555;-71
2021/04/05 13:57:49;;;;;;;5.47;1.23;;;;;;;;;;5016347;28;20472;-71
2021/04/05 14:00:22;;;;;;;3.40;0.93;;;;;;;;;;5023404;28;20573;-71
2021/04/05 14:02:52;;;;;;;2.03;0.83;;;;;;;;;;5016969;28;20539;-71
2021/04/05 14:05:21;;;;;;;1.40;0.73;;;;;;;;;;5016788;28;20475;-71
2021/04/05 14:07:49;;;;;;;2.53;0.77;;;;;;;;;;5016411;28;20519;-71
2021/04/05 14:10:17;;;;;;;1.70;0.70;;;;;;;;;;5016127;28;20494;-71
2021/04/05 14:12:47;;;;;;;2.00;0.67;;;;;;;;;;5016376;28;20473;-71
2021/04/05 14:15:15;;;;;;;12.73;11.43;;;;;;;;;;5031013;28;20827;-70
2021/04/05 14:17:45;;;;;;;2.80;0.93;;;;;;;;;;5040035;28;20496;-70
2021/04/05 14:20:16;;;;;;;5.23;0.70;;;;;;;;;;5039524;28;20535;-71
2021/04/05 14:22:48;;;;;;;2.87;1.20;;;;;;;;;;5040186;28;20563;-71
2021/04/05 14:25:19;;;;;;;8.37;0.97;;;;;;;;;;5039867;28;20961;-70
2021/04/05 14:27:47;;;;;;;3.10;0.93;;;;;;;;;;5039151;28;20473;-71
2021/04/05 14:30:18;;;;;;;1.13;0.70;;;;;;;;;;5039046;28;20528;-71
2021/04/05 14:32:48;;;;;;;1.77;0.60;;;;;;;;;;5039619;28;20524;-71
2021/04/05 14:35:16;;;;;;;1.60;0.70;;;;;;;;;;5038997;28;20477;-71
2021/04/05 14:37:46;;;;;;;2.13;0.87;;;;;;;;;;5039969;28;20749;-71
2021/04/05 14:40:19;;;;;;;6.07;1.40;;;;;;;;;;5039265;28;20468;-70
2021/04/05 14:42:53;;;;;;;1.47;0.73;;;;;;;;;;5039359;28;20465;-71
2021/04/05 14:45:24;;;;;;;1.70;0.70;;;;;;;;;;5039475;28;20471;-71
2021/04/05 14:47:53;;;;;;;2.90;1.30;;;;;;;;;;5039561;28;20853;-71
2021/04/05 14:50:27;;;;;;;1.63;0.60;;;;;;;;;;5039396;28;20505;-71
2021/04/05 14:53:02;;;;;;;1.83;0.80;;;;;;;;;;5041374;28;20565;-72
2021/04/05 14:55:31;;;;;;;2.33;0.70;;;;;;;;;;5058787;28;20457;-71
2021/04/05 14:57:59;;;;;;;1.40;0.50;;;;;;;;;;5039033;28;20854;-71
2021/04/05 15:00:28;;;;;;;4.40;2.57;;;;;;;;;;5041304;28;20470;-71
2021/04/05 15:03:02;;;;;;;7.70;1.80;;;;;;;;;;5019458;28;20463;-71
2021/04/05 15:05:39;;;;;;;14.13;13.27;;;;;;;;;;5021895;28;20809;-70
2021/04/05 15:08:07;;;;;;;2.67;1.47;;;;;;;;;;5038606;28;20474;-70
2021/04/05 15:10:37;;;;;;;1.00;0.50;;;;;;;;;;5039022;28;20483;-71
2021/04/05 15:13:08;;;;;;;23.63;21.63;;;;;;;;;;5021700;28;20566;-71
2021/04/05 15:15:38;;;;;;;8.67;8.10;;;;;;;;;;5038325;28;20909;-70
2021/04/05 15:18:07;;;;;;;2.30;0.70;;;;;;;;;;5028360;28;20725;-70
2021/04/05 15:20:39;;;;;;;62.73;39.07;;;;;;;;;;5020601;28;20536;-71
2021/04/05 15:23:09;;;;;;;51.50;38.13;;;;;;;;;;5024473;28;20466;-70
2021/04/05 15:25:37;;;;;;;12.53;11.50;;;;;;;;;;5032343;28;20452;-70
2021/04/05 15:28:06;;;;;;;44.73;34.17;;;;;;;;;;5032688;28;20463;-71
2021/04/05 15:30:40;;;;;;;58.07;38.90;;;;;;;;;;5022939;28;20487;-70
2021/04/05 15:33:08;;;;;;;6.50;5.07;;;;;;;;;;5026652;28;20478;-70
2021/04/05 15:35:37;;;;;;;6.70;1.30;;;;;;;;;;5018945;28;20455;-71
2021/04/05 15:38:06;;;;;;;3.63;1.23;;;;;;;;;;5043305;28;20481;-70
2021/04/05 15:40:35;;;;;;;39.70;31.43;;;;;;;;;;5058089;28;20469;-70